Time;durP1;ratioP1;P1;durP2;ratioP2;P2;SDS_P1;SDS_P2;PMS_P1;PMS_P2;Temp;Humidity;BMP_temperature;BMP_pressure;BME280_temperature;BME280_humidity;BME280_pressure;Samples;Min_cycle;Max_cycle;Signal;HPM_P1;HPM_P2
2022/05/11 00:02:04;;;;;;;7.67;5.10;;;19.90;57.30;;;;;;5197967;28;20265;-53
2022/05/11 00:04:34;;;;;;;7.70;4.20;;;19.70;59.30;;;;;;5197516;28;20235;-52
2022/05/11 00:07:05;;;;;;;8.17;5.27;;;19.50;62.90;;;;;;5195303;28;20279;-53
2022/05/11 00:09:35;;;;;;;5.60;5.07;;;19.30;69.70;;;;;;5196854;28;20652;-54
2022/05/11 00:12:07;;;;;;;5.30;5.00;;;19.10;81.30;;;;;;5197739;28;20234;-54
2022/05/11 00:14:38;;;;;;;7.83;4.90;;;19.00;92.50;;;;;;5198164;28;20755;-55
2022/05/11 00:17:08;;;;;;;9.07;5.40;;;18.90;98.50;;;;;;5192234;28;20523;-54
2022/05/11 00:19:39;;;;;;;6.10;5.50;;;18.80;99.90;;;;;;5195951;28;20262;-54
2022/05/11 00:22:11;;;;;;;6.93;6.17;;;18.80;99.90;;;;;;5194920;28;20706;-55
2022/05/11 00:24:42;;;;;;;14.73;6.00;;;18.70;99.90;;;;;;5197921;28;20762;-52
2022/05/11 00:27:12;;;;;;;6.27;5.10;;;18.60;99.90;;;;;;5195336;28;20501;-53
2022/05/11 00:29:43;;;;;;;5.70;5.20;;;18.50;99.90;;;;;;5196503;28;20245;-54
2022/05/11 00:32:13;;;;;;;5.57;4.97;;;18.50;99.90;;;;;;5196695;28;20716;-54
2022/05/11 00:34:44;;;;;;;5.00;4.70;;;18.40;99.90;;;;;;5194138;28;20203;-54
2022/05/11 00:37:14;;;;;;;9.27;5.13;;;18.30;99.90;;;;;;5192606;28;20180;-54
2022/05/11 00:39:45;;;;;;;6.90;5.50;;;18.30;99.90;;;;;;5204630;28;20276;-53
2022/05/11 00:42:16;;;;;;;5.93;5.33;;;18.30;99.90;;;;;;5192183;28;20186;-54
2022/05/11 00:44:47;;;;;;;7.73;6.30;;;18.30;99.90;;;;;;5196705;28;20458;-53
2022/05/11 00:47:22;;;;;;;8.57;5.70;;;18.20;99.90;;;;;;5195380;28;20184;-53
2022/05/11 00:50:00;;;;;;;5.93;5.30;;;18.10;99.90;;;;;;5196521;28;20183;-53
2022/05/11 00:52:45;;;;;;;6.77;6.17;;;18.00;99.90;;;;;;5194949;28;20477;-53
2022/05/11 00:55:23;;;;;;;6.00;5.40;;;18.00;99.90;;;;;;5189917;28;20449;-54
2022/05/11 00:58:10;;;;;;;5.67;5.17;;;17.90;99.90;;;;;;5197125;28;20454;-54
2022/05/11 01:00:43;;;;;;;6.43;5.00;;;17.90;99.90;;;;;;5193374;28;20431;-53
2022/05/11 01:03:19;;;;;;;7.17;4.97;;;17.90;99.90;;;;;;5195849;28;20439;-54
2022/05/11 01:05:50;;;;;;;5.87;4.63;;;17.80;99.90;;;;;;5194296;28;20461;-54
2022/05/11 01:08:21;;;;;;;5.93;5.43;;;17.80;99.90;;;;;;5192836;28;20771;-54
2022/05/11 01:10:52;;;;;;;5.53;5.10;;;17.80;99.90;;;;;;5208266;28;20187;-54
2022/05/11 01:13:23;;;;;;;7.47;4.77;;;17.70;99.90;;;;;;5193919;28;20833;-53
2022/05/11 01:15:53;;;;;;;6.07;5.47;;;17.70;99.90;;;;;;5194693;28;20278;-53
2022/05/11 01:18:24;;;;;;;5.23;4.73;;;17.70;99.90;;;;;;5198158;28;20176;-53
2022/05/11 01:20:55;;;;;;;8.23;4.70;;;17.60;99.90;;;;;;5195468;28;20178;-55
2022/05/11 01:23:46;;;;;;;5.20;4.80;;;17.50;99.90;;;;;;5197515;28;20202;-53
2022/05/11 01:26:18;;;;;;;7.47;5.33;;;17.50;99.90;;;;;;5194215;28;20342;-53
2022/05/11 01:28:54;;;;;;;8.00;5.20;;;17.40;99.90;;;;;;5191445;28;20461;-53
2022/05/11 01:31:24;;;;;;;7.20;5.70;;;17.40;99.90;;;;;;5195801;28;20445;-54
2022/05/11 01:33:55;;;;;;;5.40;5.00;;;17.40;99.90;;;;;;5194030;28;20457;-52
2022/05/11 01:36:34;;;;;;;5.60;4.90;;;17.40;99.90;;;;;;5193998;28;20192;-53
2022/05/11 01:39:07;;;;;;;8.23;5.50;;;17.40;99.90;;;;;;5197438;28;20183;-53
2022/05/11 01:41:43;;;;;;;7.70;5.77;;;17.40;99.90;;;;;;5206906;28;20552;-52
2022/05/11 01:44:17;;;;;;;6.37;4.80;;;17.40;99.90;;;;;;5198835;28;20450;-53
2022/05/11 01:46:51;;;;;;;5.90;5.40;;;17.40;99.90;;;;;;5200211;28;20501;-53
2022/05/11 01:49:23;;;;;;;5.93;5.43;;;17.30;99.90;;;;;;5201332;28;20494;-53
2022/05/11 01:51:54;;;;;;;6.17;5.67;;;17.30;99.90;;;;;;5190612;28;20463;-53
2022/05/11 01:54:25;;;;;;;10.23;5.77;;;17.30;99.90;;;;;;5200653;28;20458;-53
2022/05/11 01:56:55;;;;;;;7.23;5.70;;;17.30;99.90;;;;;;5196353;28;20184;-53
2022/05/11 01:59:26;;;;;;;6.67;6.13;;;17.20;99.90;;;;;;5203149;28;20183;-53
2022/05/11 02:01:57;;;;;;;7.50;5.43;;;17.20;99.90;;;;;;5200713;28;20199;-53
2022/05/11 02:10:05;;;;;;;6.10;5.50;;;17.10;99.90;;;;;;5197211;28;20465;-52
2022/05/11 02:12:36;;;;;;;12.20;5.27;;;17.10;99.90;;;;;;5201947;28;20498;-53
2022/05/11 02:15:07;;;;;;;6.10;5.67;;;17.10;99.90;;;;;;5197565;28;20203;-53
2022/05/11 02:17:37;;;;;;;5.33;5.03;;;17.10;99.90;;;;;;5198364;28;20326;-53
2022/05/11 02:20:10;;;;;;;6.50;5.30;;;17.10;99.90;;;;;;5222093;28;20446;-53
2022/05/11 02:22:42;;;;;;;10.17;5.50;;;17.10;99.90;;;;;;5202114;28;20366;-53
2022/05/11 02:25:15;;;;;;;6.47;5.80;;;17.10;99.90;;;;;;5199777;28;20477;-54
2022/05/11 02:27:48;;;;;;;7.10;6.27;;;17.10;99.90;;;;;;5201839;28;20434;-53
2022/05/11 02:30:25;;;;;;;5.50;5.00;;;17.10;99.90;;;;;;5198738;28;21084;-53
2022/05/11 02:32:56;;;;;;;5.40;4.90;;;17.10;99.90;;;;;;5201522;28;20497;-53
2022/05/11 02:35:26;;;;;;;5.60;5.17;;;17.10;99.90;;;;;;5197428;28;20458;-55
2022/05/11 02:38:00;;;;;;;6.07;5.40;;;17.00;99.90;;;;;;5193786;28;20449;-54
2022/05/11 02:40:35;;;;;;;8.30;5.23;;;17.00;99.90;;;;;;5197296;28;20182;-52
2022/05/11 02:43:07;;;;;;;5.83;5.27;;;17.00;99.90;;;;;;5199572;28;20496;-53
2022/05/11 02:45:40;;;;;;;8.17;5.40;;;17.00;99.90;;;;;;5198164;28;20494;-52
2022/05/11 02:48:13;;;;;;;7.83;4.87;;;17.10;99.90;;;;;;5200286;28;20485;-53
2022/05/11 02:50:47;;;;;;;7.20;5.60;;;17.10;99.90;;;;;;5213962;28;20442;-52
2022/05/11 02:53:18;;;;;;;10.57;5.43;;;17.00;99.90;;;;;;5198354;28;20785;-53
2022/05/11 02:55:50;;;;;;;6.00;5.50;;;17.00;99.90;;;;;;5198504;28;20473;-52
2022/05/11 02:58:24;;;;;;;4.47;4.27;;;17.00;99.90;;;;;;5198710;28;20431;-54
2022/05/11 03:00:58;;;;;;;4.70;4.40;;;17.00;99.90;;;;;;5198512;28;20473;-53
2022/05/11 03:03:35;;;;;;;4.37;4.07;;;17.00;99.90;;;;;;5195109;28;20508;-54
2022/05/11 03:06:06;;;;;;;5.53;4.33;;;17.00;99.90;;;;;;5197610;28;20439;-55
2022/05/11 03:08:38;;;;;;;5.20;4.70;;;17.00;99.90;;;;;;5211586;28;20441;-53
2022/05/11 03:11:09;;;;;;;6.77;5.50;;;17.00;99.90;;;;;;5201103;28;20430;-54
2022/05/11 03:13:39;;;;;;;6.87;5.50;;;17.10;99.90;;;;;;5197261;28;20485;-53
2022/05/11 03:16:10;;;;;;;7.23;5.10;;;16.90;99.90;;;;;;5195772;28;20780;-52
2022/05/11 03:18:40;;;;;;;6.77;5.33;;;16.70;99.90;;;;;;5195306;28;20638;-53
2022/05/11 03:21:11;;;;;;;5.90;5.50;;;16.60;99.90;;;;;;5198255;28;20640;-54
2022/05/11 03:23:42;;;;;;;6.10;5.50;;;16.60;99.90;;;;;;5198889;28;20245;-56
2022/05/11 03:26:14;;;;;;;6.47;5.83;;;16.60;99.90;;;;;;5203451;28;20636;-54
2022/05/11 03:28:44;;;;;;;7.33;6.27;;;16.70;99.90;;;;;;5193357;28;20263;-53
2022/05/11 03:31:15;;;;;;;11.63;5.33;;;16.60;99.90;;;;;;5201549;28;20525;-53
2022/05/11 03:36:35;;;;;;;7.77;5.17;;;16.70;99.90;;;;;;5200126;28;20504;-54
2022/05/11 03:39:06;;;;;;;9.13;5.40;;;16.80;99.90;;;;;;5196356;28;20434;-53
2022/05/11 03:41:37;;;;;;;6.73;6.13;;;16.80;99.90;;;;;;5198402;28;20298;-60
2022/05/11 03:44:07;;;;;;;10.00;5.87;;;16.80;99.90;;;;;;5194854;28;20692;-53
2022/05/11 03:46:38;;;;;;;7.10;5.70;;;17.10;99.90;;;;;;5193814;28;20238;-52
2022/05/11 03:49:09;;;;;;;13.37;6.10;;;17.20;99.90;;;;;;5195625;28;20191;-53
2022/05/11 03:51:40;;;;;;;7.80;6.03;;;17.10;99.90;;;;;;5197121;28;20180;-53
2022/05/11 03:54:10;;;;;;;5.80;5.30;;;17.00;99.90;;;;;;5195872;28;20508;-55
2022/05/11 03:56:41;;;;;;;6.10;5.30;;;17.00;99.90;;;;;;5197522;28;20184;-54
2022/05/11 03:59:11;;;;;;;8.83;6.10;;;17.00;99.90;;;;;;5200264;28;20266;-54
2022/05/11 04:01:42;;;;;;;10.83;5.30;;;17.00;99.90;;;;;;5197585;28;20184;-54
2022/05/11 04:04:13;;;;;;;6.53;5.43;;;17.00;99.90;;;;;;5199949;28;20298;-53
2022/05/11 04:06:45;;;;;;;8.90;6.30;;;17.00;99.90;;;;;;5198035;28;20883;-54
2022/05/11 04:09:16;;;;;;;6.17;5.20;;;17.00;99.90;;;;;;5200633;28;20187;-53
2022/05/11 04:11:47;;;;;;;5.40;4.67;;;17.10;99.90;;;;;;5200101;28;20473;-53
2022/05/11 04:14:17;;;;;;;6.30;5.70;;;17.10;99.90;;;;;;5197555;28;20187;-55
2022/05/11 04:16:58;;;;;;;6.10;5.60;;;17.20;99.90;;;;;;5194269;28;20238;-54
2022/05/11 04:19:30;;;;;;;6.50;6.10;;;17.20;99.90;;;;;;5195765;28;20318;-54
2022/05/11 04:22:00;;;;;;;7.37;6.77;;;17.20;99.90;;;;;;5192112;28;20485;-53
2022/05/11 04:24:30;;;;;;;8.27;7.43;;;17.20;99.90;;;;;;5196666;28;20470;-52
2022/05/11 04:27:01;;;;;;;6.20;5.70;;;17.30;99.90;;;;;;5199612;28;20261;-53
2022/05/11 04:29:32;;;;;;;5.77;5.20;;;17.40;99.90;;;;;;5193667;28;20184;-53
2022/05/11 04:32:03;;;;;;;7.60;7.00;;;17.40;99.90;;;;;;5195663;28;20204;-54
2022/05/11 04:34:34;;;;;;;11.03;6.70;;;17.40;99.90;;;;;;5196180;28;20223;-54
2022/05/11 04:37:05;;;;;;;9.73;6.43;;;17.40;99.90;;;;;;5202985;28;20207;-54
2022/05/11 04:39:36;;;;;;;7.13;6.10;;;17.50;99.90;;;;;;5209640;28;20918;-54
2022/05/11 04:42:08;;;;;;;10.53;7.30;;;17.40;99.90;;;;;;5200441;28;20219;-53
2022/05/11 04:44:38;;;;;;;9.67;8.20;;;17.30;99.90;;;;;;5189305;28;20207;-53
2022/05/11 04:47:11;;;;;;;9.23;7.30;;;17.20;99.90;;;;;;5196100;28;20999;-53
2022/05/11 04:49:42;;;;;;;7.93;7.20;;;17.20;99.90;;;;;;5191605;28;20194;-53
2022/05/11 04:52:15;;;;;;;6.67;6.03;;;17.20;99.90;;;;;;5199996;28;20466;-53
2022/05/11 04:54:48;;;;;;;10.03;7.60;;;17.30;99.90;;;;;;5199963;28;20207;-54
2022/05/11 04:57:20;;;;;;;15.63;7.10;;;17.30;99.90;;;;;;5197116;28;20476;-55
2022/05/11 04:59:51;;;;;;;10.00;8.20;;;17.30;99.90;;;;;;5199464;28;20648;-55
2022/05/11 05:02:23;;;;;;;11.60;8.00;;;17.20;99.90;;;;;;5184085;28;20439;-53
2022/05/11 05:04:59;;;;;;;11.87;7.90;;;17.20;99.90;;;;;;5197302;28;20564;-55
2022/05/11 05:07:30;;;;;;;8.27;7.50;;;17.20;99.90;;;;;;5216430;28;20438;-55
2022/05/11 05:10:02;;;;;;;11.73;8.00;;;17.20;99.90;;;;;;5205262;28;20492;-55
2022/05/11 05:12:33;;;;;;;8.63;7.80;;;17.20;99.90;;;;;;5207345;28;20659;-53
2022/05/11 05:15:05;;;;;;;10.13;9.00;;;17.10;99.90;;;;;;5208273;28;20898;-54
2022/05/11 05:17:35;;;;;;;13.33;7.83;;;17.10;99.90;;;;;;5207989;28;20259;-54
2022/05/11 05:20:07;;;;;;;8.60;7.80;;;17.10;99.90;;;;;;5210788;28;22483;-53
2022/05/11 05:22:38;;;;;;;8.93;8.03;;;17.10;99.90;;;;;;5207688;28;20274;-54
2022/05/11 05:25:09;;;;;;;10.60;9.13;;;17.10;99.90;;;;;;5192799;28;20466;-53
2022/05/11 05:27:40;;;;;;;9.43;8.47;;;17.10;99.90;;;;;;5204613;28;20464;-53
2022/05/11 05:33:00;;;;;;;12.10;8.93;;;17.10;99.90;;;;;;5199871;28;20211;-54
2022/05/11 05:35:30;;;;;;;12.30;10.00;;;17.00;99.90;;;;;;5198606;28;20458;-52
2022/05/11 05:38:03;;;;;;;15.73;9.07;;;17.10;99.90;;;;;;5205085;28;20301;-53
2022/05/11 05:40:33;;;;;;;10.70;8.40;;;17.10;99.90;;;;;;5203597;28;20289;-54
2022/05/11 05:43:05;;;;;;;11.60;8.00;;;17.20;99.90;;;;;;5197777;28;20777;-53
2022/05/11 05:45:36;;;;;;;7.20;6.60;;;17.30;99.90;;;;;;5208384;28;20218;-54
2022/05/11 05:48:07;;;;;;;10.30;8.33;;;17.50;99.90;;;;;;5209225;28;20434;-54
2022/05/11 05:50:37;;;;;;;15.10;7.33;;;17.60;99.90;;;;;;5202600;28;20196;-54
2022/05/11 05:53:08;;;;;;;12.33;8.53;;;17.70;99.90;;;;;;5203202;28;20294;-53
2022/05/11 05:55:38;;;;;;;10.57;8.03;;;17.80;99.90;;;;;;5199574;28;20220;-53
2022/05/11 05:58:09;;;;;;;10.73;8.40;;;17.80;99.90;;;;;;5192092;28;20184;-54
2022/05/11 06:00:40;;;;;;;11.50;8.40;;;17.80;99.90;;;;;;5194590;28;20181;-55
2022/05/11 06:03:12;;;;;;;12.67;7.93;;;17.80;99.90;;;;;;5201234;28;20507;-53
2022/05/11 06:05:43;;;;;;;9.60;8.33;;;18.00;99.90;;;;;;5194927;28;20226;-54
2022/05/11 06:08:16;;;;;;;8.27;7.40;;;18.30;99.90;;;;;;5185665;28;20438;-54
2022/05/11 06:10:47;;;;;;;12.10;7.03;;;18.60;99.90;;;;;;5204370;28;20188;-55
2022/05/11 06:13:22;;;;;;;7.93;7.10;;;18.70;99.90;;;;;;5200236;28;20467;-55
2022/05/11 06:15:55;;;;;;;14.07;7.87;;;18.70;99.90;;;;;;5199912;28;20497;-56
2022/05/11 06:18:26;;;;;;;9.83;7.27;;;18.80;99.90;;;;;;5215664;28;20469;-54
2022/05/11 06:20:56;;;;;;;10.20;7.00;;;18.60;99.90;;;;;;5201960;28;20450;-55
2022/05/11 06:23:27;;;;;;;8.13;6.70;;;18.50;99.90;;;;;;5200811;28;20457;-53
2022/05/11 06:25:57;;;;;;;8.17;7.37;;;18.50;99.90;;;;;;5201694;28;20578;-55
2022/05/11 06:28:28;;;;;;;7.83;7.13;;;18.50;99.90;;;;;;5200279;28;20176;-55
2022/05/11 06:30:59;;;;;;;13.20;7.53;;;18.70;99.90;;;;;;5194889;28;20785;-55
2022/05/11 06:33:32;;;;;;;13.70;8.07;;;18.70;99.90;;;;;;5202045;28;20477;-54
2022/05/11 06:36:04;;;;;;;9.90;8.30;;;18.70;99.90;;;;;;5205648;28;20177;-53
2022/05/11 06:38:36;;;;;;;15.47;7.67;;;18.70;99.90;;;;;;5200005;28;20447;-54
2022/05/11 06:41:15;;;;;;;16.90;9.70;;;18.80;99.90;;;;;;5191961;28;20457;-54
2022/05/11 06:43:46;;;;;;;11.97;7.67;;;18.70;99.90;;;;;;5198931;28;20445;-54
2022/05/11 06:46:18;;;;;;;10.20;8.70;;;18.70;99.90;;;;;;5197662;28;20454;-54
2022/05/11 06:48:48;;;;;;;9.57;7.43;;;19.20;99.90;;;;;;5200080;28;20186;-54
2022/05/11 06:51:20;;;;;;;8.43;7.60;;;19.50;99.90;;;;;;5218793;28;20418;-53
2022/05/11 06:59:33;;;;;;;27.77;7.27;;;19.60;99.90;;;;;;5202181;28;20583;-54
2022/05/11 07:02:05;;;;;;;8.20;7.20;;;19.30;99.90;;;;;;5204046;28;20463;-55
2022/05/11 07:04:38;;;;;;;10.23;7.33;;;19.10;99.90;;;;;;5205235;28;20464;-55
2022/05/11 07:07:09;;;;;;;13.90;7.43;;;19.30;99.90;;;;;;5183406;28;20958;-54
2022/05/11 07:09:40;;;;;;;12.80;7.53;;;20.20;99.90;;;;;;5201950;28;20450;-54
2022/05/11 07:12:17;;;;;;;7.83;6.97;;;20.70;99.90;;;;;;5206152;28;20199;-54
2022/05/11 07:14:50;;;;;;;15.80;7.00;;;21.50;99.90;;;;;;5197586;28;20199;-55
2022/05/11 07:17:42;;;;;;;16.73;6.33;;;21.80;99.90;;;;;;5193848;28;20443;-53
2022/05/11 07:20:19;;;;;;;6.33;5.60;;;21.50;99.90;;;;;;5201521;28;20511;-56
2022/05/11 07:22:50;;;;;;;11.90;7.20;;;21.40;99.90;;;;;;5196906;28;20441;-54
2022/05/11 07:25:24;;;;;;;6.20;5.67;;;21.40;99.90;;;;;;5201557;28;20489;-56
2022/05/11 07:27:57;;;;;;;10.97;6.63;;;21.30;99.90;;;;;;5200554;28;20285;-54
2022/05/11 07:30:32;;;;;;;8.23;6.23;;;21.30;99.90;;;;;;5200433;28;22427;-56
2022/05/11 07:33:03;;;;;;;8.53;6.80;;;21.50;99.90;;;;;;5194977;28;20516;-54
2022/05/11 07:35:34;;;;;;;12.80;6.60;;;22.20;99.90;;;;;;5192875;28;20565;-55
2022/05/11 07:38:09;;;;;;;7.90;5.67;;;23.30;95.60;;;;;;5195637;28;21000;-56
2022/05/11 07:40:41;;;;;;;8.60;5.13;;;25.30;86.40;;;;;;5204426;28;20247;-54
2022/05/11 07:43:12;;;;;;;10.73;5.17;;;26.60;66.70;;;;;;5212028;28;20451;-55
2022/05/11 07:45:42;;;;;;;7.33;4.93;;;26.70;58.90;;;;;;5221626;28;20537;-54
2022/05/11 07:48:13;;;;;;;6.37;5.47;;;26.40;58.20;;;;;;5196166;28;20994;-58
2022/05/11 07:50:43;;;;;;;16.40;5.30;;;25.90;58.60;;;;;;5193709;28;20203;-56
2022/05/11 07:53:14;;;;;;;7.23;4.87;;;26.20;58.00;;;;;;5192616;28;20691;-55
2022/05/11 07:55:44;;;;;;;6.53;5.83;;;26.40;57.00;;;;;;5196071;28;20251;-55
2022/05/11 08:01:04;;;;;;;5.87;5.37;;;25.40;57.30;;;;;;5198161;28;20655;-55
2022/05/11 08:03:35;;;;;;;11.23;4.80;;;25.10;57.70;;;;;;5197156;28;20442;-54
2022/05/11 08:06:06;;;;;;;7.20;5.00;;;25.20;56.80;;;;;;5195866;28;20183;-56
2022/05/11 08:08:36;;;;;;;7.00;4.60;;;24.70;57.50;;;;;;5199475;28;20739;-55
2022/05/11 08:11:07;;;;;;;5.77;5.27;;;24.40;58.00;;;;;;5192026;28;20526;-54
2022/05/11 08:13:37;;;;;;;5.00;4.60;;;24.30;59.10;;;;;;5198384;28;20211;-53
2022/05/11 08:16:08;;;;;;;5.10;3.90;;;24.20;59.60;;;;;;5197369;28;21707;-57
2022/05/11 08:18:38;;;;;;;10.93;4.63;;;24.50;58.70;;;;;;5204510;28;20194;-55
2022/05/11 08:21:09;;;;;;;4.60;4.20;;;24.80;57.90;;;;;;5196440;28;20176;-56
2022/05/11 08:23:40;;;;;;;5.53;4.60;;;24.70;57.10;;;;;;5198215;28;20196;-55
2022/05/11 08:26:10;;;;;;;4.50;4.10;;;24.00;57.60;;;;;;5180163;28;20224;-54
2022/05/11 08:28:41;;;;;;;4.57;4.27;;;24.40;57.60;;;;;;5201227;28;20179;-54
2022/05/11 08:34:00;;;;;;;7.07;5.10;;;27.20;51.70;;;;;;5195686;28;20212;-55
2022/05/11 08:36:31;;;;;;;7.77;4.40;;;27.50;50.20;;;;;;5197637;28;20518;-55
2022/05/11 08:39:01;;;;;;;5.50;4.60;;;27.40;50.60;;;;;;5191313;28;20181;-57
2022/05/11 08:41:48;;;;;;;7.10;5.03;;;27.80;50.00;;;;;;5195494;28;20184;-56
2022/05/11 08:44:31;;;;;;;8.00;4.93;;;27.40;49.90;;;;;;5197707;28;20619;-57
2022/05/11 08:47:13;;;;;;;9.73;4.73;;;27.20;50.40;;;;;;5192208;28;20430;-54
2022/05/11 08:49:49;;;;;;;11.93;5.60;;;26.90;50.60;;;;;;5215767;28;20442;-54
2022/05/11 08:52:43;;;;;;;13.77;4.87;;;27.00;51.40;;;;;;5201003;28;20860;-55
2022/05/11 08:55:47;;;;;;;11.00;4.73;;;27.40;50.20;;;;;;5201198;28;20543;-54
2022/05/11 08:58:31;;;;;;;4.93;4.53;;;27.50;49.20;;;;;;5202011;28;20871;-54
2022/05/11 09:01:03;;;;;;;4.73;4.33;;;27.30;49.60;;;;;;5204417;28;20426;-55
2022/05/11 09:03:41;;;;;;;5.10;4.50;;;27.30;49.20;;;;;;5195882;28;20434;-55
2022/05/11 09:06:26;;;;;;;12.20;4.90;;;27.00;49.40;;;;;;5198683;28;20456;-55
2022/05/11 09:08:59;;;;;;;8.83;4.90;;;26.50;50.00;;;;;;5202093;28;20434;-54
2022/05/11 09:11:41;;;;;;;5.00;4.60;;;26.30;50.30;;;;;;5199223;28;20431;-55
2022/05/11 09:14:14;;;;;;;12.70;5.40;;;26.20;51.10;;;;;;5199249;28;20481;-54
2022/05/11 09:16:48;;;;;;;10.30;4.97;;;26.30;50.40;;;;;;5200389;28;20509;-54
2022/05/11 09:19:23;;;;;;;16.80;5.40;;;26.60;50.20;;;;;;5198182;28;20448;-55
2022/05/11 09:22:05;;;;;;;6.93;5.13;;;26.90;49.50;;;;;;5193605;28;20430;-55
2022/05/11 09:24:47;;;;;;;6.77;4.40;;;27.10;49.20;;;;;;5191877;28;20524;-54
2022/05/11 09:27:44;;;;;;;6.57;4.87;;;27.50;48.50;;;;;;5196029;28;20460;-52
2022/05/11 09:30:26;;;;;;;6.77;5.33;;;27.70;48.00;;;;;;5194706;28;20541;-53
2022/05/11 09:33:22;;;;;;;12.90;5.87;;;27.70;47.70;;;;;;5199307;28;20972;-54
2022/05/11 09:35:52;;;;;;;6.23;5.57;;;27.60;47.60;;;;;;5202484;28;20534;-53
2022/05/11 09:38:41;;;;;;;6.90;4.60;;;27.30;48.20;;;;;;5198799;28;20851;-52
2022/05/11 09:41:18;;;;;;;6.70;6.07;;;27.40;48.70;;;;;;5192220;28;20184;-52
2022/05/11 09:43:51;;;;;;;6.53;5.90;;;27.70;48.10;;;;;;5201412;28;22316;-55
2022/05/11 09:46:33;;;;;;;6.93;5.10;;;27.60;48.00;;;;;;5195738;28;20576;-55
2022/05/11 09:49:15;;;;;;;6.00;4.93;;;28.10;48.30;;;;;;5201771;28;20798;-53
2022/05/11 09:51:46;;;;;;;7.30;5.83;;;28.20;47.30;;;;;;5201352;28;20513;-52
2022/05/11 09:54:38;;;;;;;7.70;5.50;;;28.50;46.30;;;;;;5199957;28;20816;-52
2022/05/11 09:57:08;;;;;;;11.33;5.63;;;28.30;46.00;;;;;;5201280;28;20573;-60
2022/05/11 09:59:49;;;;;;;9.33;5.30;;;28.70;45.90;;;;;;5202032;28;20470;-54
2022/05/11 10:02:35;;;;;;;6.07;5.57;;;28.70;45.10;;;;;;5199326;28;20183;-56
2022/05/11 10:05:24;;;;;;;7.87;5.53;;;28.90;44.50;;;;;;5198812;28;20452;-54
2022/05/11 10:08:18;;;;;;;4.77;4.47;;;29.10;44.90;;;;;;5200652;28;20434;-55
2022/05/11 10:11:03;;;;;;;5.10;4.80;;;29.30;44.30;;;;;;5185103;28;20446;-52
2022/05/11 10:13:43;;;;;;;6.23;5.73;;;28.90;43.90;;;;;;5202621;28;20498;-53
2022/05/11 10:22:33;;;;;;;5.67;5.27;;;27.40;46.90;;;;;;5207434;28;20922;-53
2022/05/11 10:25:28;;;;;;;7.93;6.00;;;27.20;47.40;;;;;;5198249;28;20529;-55
2022/05/11 10:28:43;;;;;;;7.00;5.63;;;27.10;47.10;;;;;;5200121;28;23821;-53
2022/05/11 10:31:42;;;;;;;5.80;5.30;;;27.10;47.30;;;;;;5203137;28;20466;-53
2022/05/11 10:34:43;;;;;;;6.90;5.20;;;27.30;46.70;;;;;;5201087;28;20457;-53
2022/05/11 10:38:03;;;;;;;10.93;5.07;;;27.50;46.40;;;;;;5204025;28;20897;-52
2022/05/11 10:41:21;;;;;;;4.43;4.10;;;27.60;45.90;;;;;;5198662;28;20430;-58
2022/05/11 10:44:07;;;;;;;8.47;5.23;;;27.90;45.80;;;;;;5176149;28;20494;-57
2022/05/11 10:46:46;;;;;;;12.00;5.83;;;27.90;45.20;;;;;;5201152;28;20442;-57
2022/05/11 10:49:32;;;;;;;9.00;5.43;;;27.90;45.30;;;;;;5200893;28;20430;-53
2022/05/11 10:52:18;;;;;;;8.43;5.03;;;27.90;45.30;;;;;;5206736;28;21045;-53
2022/05/11 10:55:25;;;;;;;14.73;5.60;;;27.70;44.80;;;;;;5200626;28;20458;-53
2022/05/11 10:58:23;;;;;;;4.27;3.83;;;27.70;45.10;;;;;;5199101;28;20516;-52
2022/05/11 11:01:15;;;;;;;8.70;4.43;;;27.80;44.90;;;;;;5203620;28;20567;-53
2022/05/11 11:03:57;;;;;;;4.83;4.40;;;27.90;45.00;;;;;;5200434;28;20438;-57
2022/05/11 11:09:46;;;;;;;5.70;5.20;;;27.80;44.40;;;;;;5198213;28;20422;-58
2022/05/11 11:12:49;;;;;;;7.87;6.70;;;27.70;44.90;;;;;;5197708;28;20476;-56
2022/05/11 11:15:26;;;;;;;7.50;4.73;;;28.00;44.80;;;;;;5199147;28;20766;-56
2022/05/11 11:17:58;;;;;;;5.80;4.53;;;28.20;44.20;;;;;;5202432;28;20433;-59
2022/05/11 11:20:34;;;;;;;8.87;4.10;;;28.50;43.70;;;;;;5201620;28;20427;-57
2022/05/11 11:23:12;;;;;;;6.13;3.33;;;28.60;43.00;;;;;;5194637;28;20449;-58
2022/05/11 11:25:58;;;;;;;8.00;4.40;;;28.40;43.30;;;;;;5198950;28;20531;-57
2022/05/11 11:29:09;;;;;;;4.27;3.80;;;28.30;42.60;;;;;;5202684;28;20898;-57
2022/05/11 11:31:58;;;;;;;7.90;3.87;;;28.20;42.30;;;;;;5202664;28;20454;-56
2022/05/11 11:34:34;;;;;;;8.50;4.40;;;27.70;42.50;;;;;;5199111;28;20508;-56
2022/05/11 11:37:29;;;;;;;5.70;4.03;;;27.60;43.20;;;;;;5199411;28;20430;-58
2022/05/11 11:40:15;;;;;;;3.93;3.30;;;27.80;42.90;;;;;;5192304;28;20429;-57
2022/05/11 11:42:46;;;;;;;4.33;4.00;;;27.80;42.70;;;;;;5206356;28;20521;-57
2022/05/11 11:45:26;;;;;;;25.77;5.40;;;27.90;42.80;;;;;;5199713;28;20542;-57
2022/05/11 11:48:15;;;;;;;16.73;6.93;;;28.00;40.90;;;;;;5194766;28;20205;-57
2022/05/11 11:50:45;;;;;;;14.27;5.70;;;28.10;40.50;;;;;;5201283;28;20867;-57
2022/05/11 11:53:36;;;;;;;6.10;4.57;;;28.30;40.20;;;;;;5199633;28;20607;-59
2022/05/11 11:56:32;;;;;;;3.90;3.13;;;28.50;39.10;;;;;;5191012;28;20274;-58
2022/05/11 11:59:06;;;;;;;7.13;4.97;;;28.70;38.90;;;;;;5190121;28;20838;-56
2022/05/11 12:01:44;;;;;;;16.67;7.53;;;28.60;38.70;;;;;;5202163;28;20430;-58
2022/05/11 12:04:35;;;;;;;5.20;4.23;;;28.60;38.80;;;;;;5200123;28;20451;-57
2022/05/11 12:16:10;;;;;;;12.80;4.37;;;28.90;36.80;;;;;;5198433;28;20430;-58
2022/05/11 12:18:43;;;;;;;4.93;4.57;;;29.00;36.60;;;;;;5192234;28;20544;-58
2022/05/11 12:21:25;;;;;;;5.23;3.30;;;28.90;36.60;;;;;;5198594;28;20614;-59
2022/05/11 12:23:57;;;;;;;3.50;3.23;;;28.70;36.50;;;;;;5194497;28;20844;-55
2022/05/11 12:26:31;;;;;;;10.90;5.17;;;28.60;36.70;;;;;;5192948;28;20453;-57
2022/05/11 12:32:06;;;;;;;4.00;3.40;;;28.80;36.90;;;;;;5197606;28;20937;-57
2022/05/11 12:34:43;;;;;;;3.40;2.37;;;28.80;37.00;;;;;;5192607;28;20454;-59
2022/05/11 12:37:27;;;;;;;3.03;2.83;;;28.80;37.90;;;;;;5199257;28;20454;-57
2022/05/11 12:40:09;;;;;;;3.73;3.43;;;28.80;37.10;;;;;;5200869;28;20926;-56
2022/05/11 12:42:46;;;;;;;2.93;2.73;;;28.90;37.20;;;;;;5196480;28;20450;-55
2022/05/11 12:45:19;;;;;;;11.63;3.10;;;29.00;37.30;;;;;;5198098;28;20570;-56
2022/05/11 12:47:54;;;;;;;2.40;2.27;;;29.00;36.40;;;;;;5198629;28;20521;-56
2022/05/11 12:50:30;;;;;;;3.97;2.60;;;28.70;36.30;;;;;;5196985;28;20436;-57
2022/05/11 12:53:05;;;;;;;14.30;2.60;;;28.50;36.60;;;;;;5197886;28;20462;-55
2022/05/11 12:55:36;;;;;;;3.67;2.80;;;28.50;36.80;;;;;;5199422;28;20485;-58
2022/05/11 12:58:07;;;;;;;25.97;3.80;;;28.30;37.00;;;;;;5196521;28;20538;-58
2022/05/11 13:00:39;;;;;;;3.63;2.90;;;28.40;37.50;;;;;;5202334;28;20990;-56
2022/05/11 13:03:25;;;;;;;3.23;2.93;;;28.40;37.30;;;;;;5201650;28;20183;-56
2022/05/11 13:06:00;;;;;;;3.70;3.03;;;28.50;37.10;;;;;;5192213;28;20462;-57
2022/05/11 13:08:37;;;;;;;3.43;2.33;;;28.50;37.20;;;;;;5203418;28;20234;-57
2022/05/11 13:11:12;;;;;;;20.43;3.10;;;28.70;37.50;;;;;;5193422;28;20430;-58
2022/05/11 13:13:45;;;;;;;3.43;3.13;;;28.90;37.10;;;;;;5194856;28;20469;-57
2022/05/11 13:16:21;;;;;;;7.00;4.20;;;29.00;37.00;;;;;;5191272;28;20529;-57
2022/05/11 13:19:11;;;;;;;8.80;4.80;;;29.00;36.90;;;;;;5197830;28;20441;-57
2022/05/11 13:21:46;;;;;;;4.87;3.90;;;29.00;36.50;;;;;;5198345;28;20434;-57
2022/05/11 13:24:35;;;;;;;5.67;2.60;;;28.90;36.90;;;;;;5197650;28;20491;-57
2022/05/11 13:27:32;;;;;;;6.00;2.77;;;28.80;36.90;;;;;;5196555;28;21016;-57
2022/05/11 13:30:37;;;;;;;4.00;2.50;;;28.60;37.10;;;;;;5196873;28;20445;-58
2022/05/11 13:33:26;;;;;;;22.63;2.90;;;28.70;36.90;;;;;;5192966;28;20556;-57
2022/05/11 13:36:15;;;;;;;3.63;2.70;;;28.90;36.80;;;;;;5199816;28;20472;-55
2022/05/11 13:39:00;;;;;;;3.47;3.07;;;29.10;36.50;;;;;;5199101;28;21217;-56
2022/05/11 13:41:35;;;;;;;3.40;3.10;;;28.90;36.30;;;;;;5195329;28;20949;-56
2022/05/11 13:44:15;;;;;;;3.27;2.37;;;28.80;36.60;;;;;;5199385;28;21064;-55
2022/05/11 13:49:40;;;;;;;10.27;3.40;;;28.70;35.50;;;;;;5199360;28;20480;-58
2022/05/11 13:52:32;;;;;;;6.93;2.73;;;28.70;35.20;;;;;;5201038;28;20517;-59
2022/05/11 13:55:04;;;;;;;5.93;2.60;;;28.70;35.30;;;;;;5194904;28;20512;-58
2022/05/11 13:57:39;;;;;;;3.03;2.50;;;28.80;35.10;;;;;;5202505;28;20434;-56
2022/05/11 14:00:14;;;;;;;3.47;2.57;;;28.90;35.20;;;;;;5198725;28;20437;-58
2022/05/11 14:03:01;;;;;;;7.47;2.30;;;28.80;34.90;;;;;;5195591;28;20496;-57
2022/05/11 14:05:32;;;;;;;8.43;2.60;;;28.70;35.20;;;;;;5196111;28;20838;-58
2022/05/11 14:08:03;;;;;;;8.73;3.07;;;28.60;35.30;;;;;;5201498;28;20446;-56
2022/05/11 14:10:33;;;;;;;3.20;2.93;;;28.50;35.40;;;;;;5200593;28;20211;-58
2022/05/11 14:13:04;;;;;;;13.07;3.37;;;28.50;35.60;;;;;;5198968;28;20219;-58
2022/05/11 14:15:35;;;;;;;2.97;2.87;;;28.60;35.30;;;;;;5203870;28;20204;-57